Observation data for Denver City on 01/11/2018      Previous  Date  Next       Current Mesonet Observations  Soil Data  Daily Summary Page  Observations in Plain Language
KDVS 110600Z 24017KT 08/M01 A2967 RMK A01 T00771007  RH  056%=      5-min Rain = 0
KDVS 110605Z 23017G23KT 08/M01 A2967 RMK A01 T00761007  RH  056%=      5-min Rain = 0
KDVS 110610Z 23017G22KT 08/M01 A2967 RMK A01 T00771007  RH  056%=      5-min Rain = 0
KDVS 110615Z 23018G23KT 08/M01 A2967 RMK A01 T00781007  RH  056%=      5-min Rain = 0
KDVS 110620Z 24019G26KT 08/M01 A2967 RMK A01 T00801006  RH  055%=      5-min Rain = 0
KDVS 110625Z 24020KT 08/M01 A2966 RMK A01 T00811006  RH  055%=      5-min Rain = 0
KDVS 110630Z 25021G26KT 08/M01 A2966 RMK A01 T00811006  RH  055%=      5-min Rain = 0
KDVS 110635Z 25021KT 08/M01 A2965 RMK A01 T00831006  RH  054%=      5-min Rain = 0
KDVS 110640Z 24020G25KT 08/M01 A2965 RMK A01 T00821006  RH  054%=      5-min Rain = 0
KDVS 110645Z 24020G25KT 08/M01 A2965 RMK A01 T00821006  RH  054%=      5-min Rain = 0
KDVS 110650Z 24019G24KT 08/M01 A2965 RMK A01 T00821006  RH  055%=      5-min Rain = 0
KDVS 110655Z 24020G25KT 08/M01 A2966 RMK A01 T00821006  RH  055%=      5-min Rain = 0
KDVS 110700Z 24018G24KT 08/M01 A2966 RMK A01 T00821006  RH  055%=      5-min Rain = 0
KDVS 110705Z 24020G26KT 08/M01 A2966 RMK A01 T00811006  RH  054%=      5-min Rain = 0
KDVS 110710Z 24019G27KT 08/M01 A2966 RMK A01 T00811007  RH  054%=      5-min Rain = 0
KDVS 110715Z 24020G25KT 08/M01 A2966 RMK A01 T00811007  RH  055%=      5-min Rain = 0
KDVS 110720Z 24019G24KT 08/M01 A2966 RMK A01 T00811007  RH  054%=      5-min Rain = 0
KDVS 110725Z 24018KT 08/M01 A2966 RMK A01 T00801007  RH  055%=      5-min Rain = 0
KDVS 110730Z 24018KT 08/M01 A2967 RMK A01 T00791007  RH  055%=      5-min Rain = 0
KDVS 110735Z 24017KT 08/M01 A2967 RMK A01 T00781007  RH  055%=      5-min Rain = 0
KDVS 110740Z 24017KT 08/M01 A2967 RMK A01 T00781007  RH  055%=      5-min Rain = 0
KDVS 110745Z 24017G22KT 08/M01 A2967 RMK A01 T00781007  RH  055%=      5-min Rain = 0
KDVS 110750Z 25017G22KT 08/M01 A2967 RMK A01 T00791007  RH  055%=      5-min Rain = 0
KDVS 110755Z 25019G24KT 08/M01 A2967 RMK A01 T00791007  RH  055%=      5-min Rain = 0
KDVS 110800Z 25020KT 08/M01 A2967 RMK A01 T00801008  RH  054%=      5-min Rain = 0
KDVS 110805Z 25021G26KT 08/M01 A2967 RMK A01 T00821008  RH  054%=      5-min Rain = 0
KDVS 110810Z 25019G24KT 08/M01 A2967 RMK A01 T00821008  RH  054%=      5-min Rain = 0
KDVS 110815Z 25020KT 08/M01 A2967 RMK A01 T00821007  RH  054%=      5-min Rain = 0
KDVS 110820Z 25019G24KT 08/M01 A2967 RMK A01 T00821007  RH  054%=      5-min Rain = 0
KDVS 110825Z 25020G26KT 08/M01 A2968 RMK A01 T00831007  RH  054%=      5-min Rain = 0
KDVS 110830Z 25020G25KT 08/M01 A2968 RMK A01 T00831007  RH  054%=      5-min Rain = 0
KDVS 110835Z 26019G26KT 08/M01 A2968 RMK A01 T00831007  RH  054%=      5-min Rain = 0
KDVS 110840Z 26020G25KT 08/M01 A2969 RMK A01 T00841007  RH  053%=      5-min Rain = 0
KDVS 110845Z 26020KT 08/M01 A2969 RMK A01 T00841007  RH  053%=      5-min Rain = 0
KDVS 110850Z 26020KT 09/M01 A2969 RMK A01 T00851007  RH  053%=      5-min Rain = 0
KDVS 110855Z 26018G25KT 09/M01 A2969 RMK A01 T00851007  RH  053%=      5-min Rain = 0
KDVS 110900Z 26018KT 09/M01 A297 RMK A01 T00851007  RH  053%=      5-min Rain = 0
KDVS 110905Z 26017KT 09/M01 A297 RMK A01 T00851007  RH  053%=      5-min Rain = 0
KDVS 110910Z 26017G22KT 08/M01 A297 RMK A01 T00841007  RH  053%=      5-min Rain = 0
KDVS 110915Z 26016KT 08/M01 A297 RMK A01 T00841007  RH  053%=      5-min Rain = 0
KDVS 110920Z 26014KT 08/M01 A297 RMK A01 T00841007  RH  053%=      5-min Rain = 0
KDVS 110925Z 27012KT 08/M01 A297 RMK A01 T00841007  RH  053%=      5-min Rain = 0
KDVS 110930Z 27014KT 09/M01 A297 RMK A01 T00851007  RH  053%=      5-min Rain = 0
KDVS 110935Z 27014KT 09/M01 A2971 RMK A01 T00871007  RH  052%=      5-min Rain = 0
KDVS 110940Z 28015G20KT 09/M01 A2971 RMK A01 T00881008  RH  052%=      5-min Rain = 0
KDVS 110945Z 28016KT 09/M01 A2971 RMK A01 T00911008  RH  050%=      5-min Rain = 0
KDVS 110950Z 28015KT 09/M01 A2971 RMK A01 T00911008  RH  050%=      5-min Rain = 0
KDVS 110955Z 28015G20KT 09/M01 A2971 RMK A01 T00911008  RH  050%=      5-min Rain = 0
KDVS 111000Z 28016KT 09/M01 A2972 RMK A01 T00921008  RH  050%=      5-min Rain = 0
KDVS 111005Z 29016G24KT 09/M01 A2972 RMK A01 T00921007  RH  050%=      5-min Rain = 0
KDVS 111010Z 29017G22KT 09/M01 A2972 RMK A01 T00931007  RH  050%=      5-min Rain = 0
KDVS 111015Z 29018KT 09/M01 A2973 RMK A01 T00941006  RH  050%=      5-min Rain = 0
KDVS 111020Z 30019G25KT 09/M00 A2973 RMK A01 T00941004  RH  051%=      5-min Rain = 0
KDVS 111025Z 30019KT 09/M00 A2973 RMK A01 T00931002  RH  052%=      5-min Rain = 0
KDVS 111030Z 30017G23KT 09/00 A2974 RMK A01 T009100-0  RH  053%=      5-min Rain = 0
KDVS 111035Z 30018G24KT 09/00 A2974 RMK A01 T00910001  RH  054%=      5-min Rain = 0
KDVS 111040Z 31017KT 09/00 A2975 RMK A01 T00920003  RH  054%=      5-min Rain = 0
KDVS 111045Z 31016G21KT 09/00 A2975 RMK A01 T00920004  RH  055%=      5-min Rain = 0
KDVS 111050Z 32016G22KT 09/01 A2976 RMK A01 T00930006  RH  055%=      5-min Rain = 0
KDVS 111055Z 33017G22KT 09/01 A2976 RMK A01 T00930008  RH  056%=      5-min Rain = 0
KDVS 111100Z 35018G24KT 09/01 A2977 RMK A01 T00930013  RH  058%=      5-min Rain = 0
KDVS 111105Z 00024G30KT 09/02 A2978 RMK A01 T00890022  RH  064%=      5-min Rain = 0
KDVS 111110Z 36018G26KT 08/03 A2979 RMK A01 T00830028  RH  070%=      5-min Rain = 0
KDVS 111115Z 36017G22KT 08/03 A2979 RMK A01 T00790032  RH  074%=      5-min Rain = 0
KDVS 111120Z 01013G19KT 08/03 A298 RMK A01 T00770029  RH  073%=      5-min Rain = 0
KDVS 111125Z 01016KT 08/02 A298 RMK A01 T00770020  RH  068%=      5-min Rain = 0
KDVS 111130Z 02016G23KT 08/02 A298 RMK A01 T00760016  RH  067%=      5-min Rain = 0
KDVS 111135Z 01013G19KT 07/02 A2981 RMK A01 T00730017  RH  068%=      5-min Rain = 0
KDVS 111140Z 02013G18KT 07/02 A2981 RMK A01 T00710019  RH  070%=      5-min Rain = 0
KDVS 111145Z 01015G20KT 07/02 A2981 RMK A01 T00700023  RH  073%=      5-min Rain = 0
KDVS 111150Z 00016G21KT 07/03 A2982 RMK A01 T00690025  RH  075%=      5-min Rain = 0
KDVS 111155Z 00020G32KT 07/02 A2982 RMK A01 T00690019  RH  072%=      5-min Rain = 0
KDVS 111200Z 00024G34KT 07/01 A2982 RMK A01 T00690010  RH  067%=      5-min Rain = 0
KDVS 111205Z 00023G30KT 07/01 A2983 RMK A01 T00690008  RH  066%=      5-min Rain = 0
KDVS 111210Z 01018G27KT 07/01 A2983 RMK A01 T00680008  RH  067%=      5-min Rain = 0
KDVS 111215Z 01016KT 07/01 A2984 RMK A01 T00660010  RH  068%=      5-min Rain = 0
KDVS 111220Z 00016G22KT 07/01 A2984 RMK A01 T00650009  RH  068%=      5-min Rain = 0
KDVS 111225Z 36014KT 07/01 A2985 RMK A01 T00650010  RH  069%=      5-min Rain = 0
KDVS 111230Z 36014G19KT 06/01 A2985 RMK A01 T00640009  RH  069%=      5-min Rain = 0
KDVS 111235Z 35015G22KT 06/01 A2985 RMK A01 T00640010  RH  069%=      5-min Rain = 0
KDVS 111240Z 35020G28KT 06/01 A2986 RMK A01 T00630005  RH  067%=      5-min Rain = 0
KDVS 111245Z 36018G25KT 06/00 A2987 RMK A01 T00610000  RH  066%=      5-min Rain = 0
KDVS 111250Z 35019G25KT 06/M00 A2987 RMK A01 T00601002  RH  065%=      5-min Rain = 0
KDVS 111255Z 35019G30KT 06/M00 A2988 RMK A01 T00591004  RH  065%=      5-min Rain = 0
KDVS 111300Z 35022G29KT 06/M01 A2988 RMK A01 T00571005  RH  065%=      5-min Rain = 0
KDVS 111305Z 35017G26KT 05/M00 A2989 RMK A01 T00541002  RH  068%=      5-min Rain = 0
KDVS 111310Z 35016G21KT 05/M00 A2989 RMK A01 T00531003  RH  068%=      5-min Rain = 0
KDVS 111315Z 36018G25KT 05/M01 A299 RMK A01 T00531006  RH  067%=      5-min Rain = 0
KDVS 111320Z 36022G29KT 05/M01 A299 RMK A01 T00521010  RH  065%=      5-min Rain = 0
KDVS 111325Z 00024G31KT 05/M01 A299 RMK A01 T00521012  RH  064%=      5-min Rain = 0
KDVS 111330Z 01020G28KT 05/M01 A299 RMK A01 T00501010  RH  066%=      5-min Rain = 0
KDVS 111335Z 36016KT 05/M01 A2991 RMK A01 T00481008  RH  067%=      5-min Rain = 0
KDVS 111340Z 35019G25KT 05/M01 A2991 RMK A01 T00491010  RH  066%=      5-min Rain = 0
KDVS 111345Z 35021G28KT 05/M01 A2992 RMK A01 T00481011  RH  067%=      5-min Rain = 0
KDVS 111350Z 35020G27KT 05/M01 A2992 RMK A01 T00461009  RH  068%=      5-min Rain = 0
KDVS 111355Z 36016G24KT 05/M01 A2993 RMK A01 T00451008  RH  069%=      5-min Rain = 0
KDVS 111400Z 36019G25KT 04/M01 A2993 RMK A01 T00441014  RH  067%=      5-min Rain = 0
KDVS 111405Z 36016G22KT 04/M02 A2994 RMK A01 T00431018  RH  065%=      5-min Rain = 0
KDVS 111410Z 35015G23KT 04/M02 A2994 RMK A01 T00421020  RH  065%=      5-min Rain = 0
KDVS 111415Z 35016G21KT 04/M02 A2995 RMK A01 T00421020  RH  064%=      5-min Rain = 0
KDVS 111420Z 35016G22KT 04/M02 A2995 RMK A01 T00421019  RH  065%=      5-min Rain = 0
KDVS 111425Z 35016G21KT 04/M02 A2996 RMK A01 T00431019  RH  064%=      5-min Rain = 0
KDVS 111430Z 35016G21KT 04/M02 A2997 RMK A01 T00441019  RH  064%=      5-min Rain = 0
KDVS 111435Z 35015G23KT 05/M02 A2997 RMK A01 T00451020  RH  063%=      5-min Rain = 0
KDVS 111440Z 35015G21KT 05/M02 A2998 RMK A01 T00461020  RH  063%=      5-min Rain = 0
KDVS 111445Z 35016G21KT 05/M02 A2999 RMK A01 T00471023  RH  061%=      5-min Rain = 0
KDVS 111450Z 35013G21KT 05/M02 A30 RMK A01 T00471024  RH  060%=      5-min Rain = 0
KDVS 111455Z 34016G21KT 05/M03 A30 RMK A01 T00471026  RH  059%=      5-min Rain = 0
KDVS 111500Z 35016G25KT 05/M03 A3001 RMK A01 T00481027  RH  059%=      5-min Rain = 0
KDVS 111505Z 35017G22KT 05/M03 A3001 RMK A01 T00481029  RH  058%=      5-min Rain = 0
KDVS 111510Z 35015G20KT 05/M03 A3002 RMK A01 T00481028  RH  058%=      5-min Rain = 0
KDVS 111515Z 34015G23KT 05/M02 A3002 RMK A01 T00491023  RH  060%=      5-min Rain = 0
KDVS 111520Z 34019G26KT 05/M03 A3003 RMK A01 T00491028  RH  058%=      5-min Rain = 0
KDVS 111525Z 35016G21KT 05/M03 A3004 RMK A01 T00491028  RH  058%=      5-min Rain = 0
KDVS 111530Z 34021G29KT 05/M04 A3004 RMK A01 T00481036  RH  055%=      5-min Rain = 0
KDVS 111535Z 33021G28KT 05/M05 A3005 RMK A01 T00451048  RH  051%=      5-min Rain = 0
KDVS 111540Z 34021G29KT 04/M06 A3005 RMK A01 T00401059  RH  048%=      5-min Rain = 0
KDVS 111545Z 35021G27KT 04/M07 A3006 RMK A01 T00371067  RH  047%=      5-min Rain = 0
KDVS 111550Z 35024G31KT 04/M07 A3006 RMK A01 T00351071  RH  046%=      5-min Rain = 0
KDVS 111555Z 35024G30KT 03/M07 A3007 RMK A01 T00341073  RH  045%=      5-min Rain = 0
KDVS 111600Z 35020G27KT 03/M07 A3008 RMK A01 T00331074  RH  045%=      5-min Rain = 0
KDVS 111605Z 36021G26KT 03/M07 A3009 RMK A01 T00331073  RH  046%=      5-min Rain = 0
KDVS 111610Z 00020G29KT 03/M08 A3009 RMK A01 T00341075  RH  045%=      5-min Rain = 0
KDVS 111615Z 36022G30KT 04/M08 A3009 RMK A01 T00351076  RH  044%=      5-min Rain = 0
KDVS 111620Z 00021G27KT 04/M08 A301 RMK A01 T00391075  RH  043%=      5-min Rain = 0
KDVS 111625Z 00020G27KT 05/M08 A301 RMK A01 T00451075  RH  041%=      5-min Rain = 0
KDVS 111630Z 36022G27KT 04/M08 A3011 RMK A01 T00421077  RH  042%=      5-min Rain = 0
KDVS 111635Z 36020G28KT 04/M08 A3011 RMK A01 T00431076  RH  042%=      5-min Rain = 0
KDVS 111640Z 35020G27KT 05/M08 A3012 RMK A01 T00501077  RH  039%=      5-min Rain = 0
KDVS 111645Z 36019G24KT 05/M08 A3012 RMK A01 T00511076  RH  039%=      5-min Rain = 0
KDVS 111650Z 35021G33KT 05/M08 A3013 RMK A01 T00521079  RH  038%=      5-min Rain = 0
KDVS 111655Z 36021G29KT 05/M09 A3013 RMK A01 T00501085  RH  037%=      5-min Rain = 0
KDVS 111700Z 36019G26KT 05/M09 A3014 RMK A01 T00501085  RH  037%=      5-min Rain = 0
KDVS 111705Z 36022G29KT 05/M09 A3014 RMK A01 T00511087  RH  036%=      5-min Rain = 0
KDVS 111710Z 00021G28KT 05/M09 A3014 RMK A01 T00501089  RH  036%=      5-min Rain = 0
KDVS 111715Z 36022G27KT 05/M09 A3014 RMK A01 T00521092  RH  034%=      5-min Rain = 0
KDVS 111720Z 00020G27KT 06/M09 A3015 RMK A01 T00561090  RH  034%=      5-min Rain = 0
KDVS 111725Z 36022G29KT 06/M09 A3015 RMK A01 T00571093  RH  033%=      5-min Rain = 0
KDVS 111730Z 35022G28KT 06/M10 A3016 RMK A01 T00561095  RH  033%=      5-min Rain = 0
KDVS 111735Z 00023G28KT 06/M10 A3016 RMK A01 T00581096  RH  032%=      5-min Rain = 0
KDVS 111740Z 36021G27KT 06/M10 A3016 RMK A01 T00571097  RH  032%=      5-min Rain = 0
KDVS 111745Z 36021KT 06/M10 A3016 RMK A01 T00571098  RH  032%=      5-min Rain = 0
KDVS 111750Z 35020G25KT 06/M10 A3016 RMK A01 T00581095  RH  032%=      5-min Rain = 0
KDVS 111755Z 35019G25KT 06/M10 A3016 RMK A01 T00561098  RH  032%=      5-min Rain = 0
KDVS 111800Z 35020G26KT 06/M10 A3016 RMK A01 T00631097  RH  031%=      5-min Rain = 0
KDVS 111805Z 36020G27KT 07/M10 A3016 RMK A01 T00711097  RH  029%=      5-min Rain = 0
KDVS 111810Z 00020KT 07/M10 A3017 RMK A01 T00691101  RH  029%=      5-min Rain = 0
KDVS 111815Z 00019G25KT 07/M10 A3017 RMK A01 T00731098  RH  028%=      5-min Rain = 0
KDVS 111820Z 35020G25KT 08/M10 A3017 RMK A01 T00761100  RH  027%=      5-min Rain = 0
KDVS 111825Z 36020G27KT 08/M10 A3017 RMK A01 T00771104  RH  026%=      5-min Rain = 0
KDVS 111830Z 36020G25KT 07/M11 A3017 RMK A01 T00721106  RH  027%=      5-min Rain = 0
KDVS 111835Z 36019G28KT 07/M10 A3017 RMK A01 T00711104  RH  027%=      5-min Rain = 0
KDVS 111840Z 35020G28KT 07/M11 A3017 RMK A01 T00711106  RH  027%=      5-min Rain = 0
KDVS 111845Z 35019G26KT 07/M11 A3016 RMK A01 T00721106  RH  027%=      5-min Rain = 0
KDVS 111850Z 00020G28KT 08/M10 A3016 RMK A01 T00791104  RH  026%=      5-min Rain = 0
KDVS 111855Z 00020G26KT 08/M10 A3016 RMK A01 T00831104  RH  025%=      5-min Rain = 0
KDVS 111900Z 36021G27KT 08/M11 A3016 RMK A01 T00781107  RH  026%=      5-min Rain = 0
KDVS 111905Z 00018G26KT 08/M11 A3016 RMK A01 T00791105  RH  026%=      5-min Rain = 0
KDVS 111910Z 36019G28KT 09/M10 A3016 RMK A01 T00851104  RH  025%=      5-min Rain = 0
KDVS 111915Z 01021G26KT 08/M11 A3016 RMK A01 T00831107  RH  025%=      5-min Rain = 0
KDVS 111920Z 01018G26KT 08/M11 A3017 RMK A01 T00841106  RH  025%=      5-min Rain = 0
KDVS 111925Z 35018G25KT 09/M10 A3017 RMK A01 T00901104  RH  024%=      5-min Rain = 0
KDVS 111930Z 35020G25KT 08/M11 A3017 RMK A01 T00841106  RH  025%=      5-min Rain = 0
KDVS 111935Z 35018G23KT 08/M11 A3017 RMK A01 T00811105  RH  025%=      5-min Rain = 0
KDVS 111940Z 35017G22KT 08/M11 A3017 RMK A01 T00811105  RH  025%=      5-min Rain = 0
KDVS 111945Z 35017G28KT 09/M11 A3017 RMK A01 T00851105  RH  025%=      5-min Rain = 0
KDVS 111950Z 00018G27KT 09/M11 A3017 RMK A01 T00861105  RH  025%=      5-min Rain = 0
KDVS 111955Z 36020G27KT 08/M11 A3017 RMK A01 T00841107  RH  024%=      5-min Rain = 0
KDVS 112000Z 00016G21KT 09/M10 A3017 RMK A01 T00851104  RH  025%=      5-min Rain = 0
KDVS 112005Z 01016G22KT 09/M10 A3017 RMK A01 T00871104  RH  025%=      5-min Rain = 0
KDVS 112010Z 36016G23KT 09/M10 A3017 RMK A01 T00911102  RH  024%=      5-min Rain = 0
KDVS 112015Z 36019G25KT 09/M11 A3017 RMK A01 T00901105  RH  024%=      5-min Rain = 0
KDVS 112020Z 35014KT 09/M10 A3018 RMK A01 T00871104  RH  025%=      5-min Rain = 0
KDVS 112025Z 36016G23KT 09/M10 A3018 RMK A01 T00911103  RH  024%=      5-min Rain = 0
KDVS 112030Z 00016G22KT 09/M11 A3018 RMK A01 T00881106  RH  024%=      5-min Rain = 0
KDVS 112035Z 36015G22KT 09/M10 A3018 RMK A01 T00911104  RH  024%=      5-min Rain = 0
KDVS 112040Z 36014G20KT 09/M10 A3018 RMK A01 T00921104  RH  024%=      5-min Rain = 0
KDVS 112045Z 36015KT 09/M10 A3018 RMK A01 T00901104  RH  024%=      5-min Rain = 0
KDVS 112050Z 36016G22KT 10/M10 A3018 RMK A01 T00951104  RH  023%=      5-min Rain = 0
KDVS 112055Z 35018G23KT 09/M11 A3018 RMK A01 T00941108  RH  023%=      5-min Rain = 0
KDVS 112100Z 36016KT 10/M11 A3019 RMK A01 T00961106  RH  023%=      5-min Rain = 0
KDVS 112105Z 36018G26KT 10/M11 A3019 RMK A01 T00951109  RH  022%=      5-min Rain = 0
KDVS 112110Z 36016G21KT 10/M11 A3019 RMK A01 T00981109  RH  022%=      5-min Rain = 0
KDVS 112115Z 01015KT 10/M11 A3019 RMK A01 T00991110  RH  022%=      5-min Rain = 0
KDVS 112120Z 01015G22KT 10/M11 A3019 RMK A01 T00971110  RH  022%=      5-min Rain = 0
KDVS 112125Z 01016G21KT 10/M11 A3019 RMK A01 T00971110  RH  022%=      5-min Rain = 0
KDVS 112130Z 01013G19KT 10/M11 A3019 RMK A01 T01001109  RH  022%=      5-min Rain = 0
KDVS 112135Z 00015G21KT 10/M11 A3019 RMK A01 T00991108  RH  022%=      5-min Rain = 0
KDVS 112140Z 00015G25KT 10/M11 A3019 RMK A01 T00991108  RH  022%=      5-min Rain = 0
KDVS 112145Z 00015KT 10/M11 A302 RMK A01 T00981108  RH  022%=      5-min Rain = 0
KDVS 112150Z 00014G20KT 10/M11 A302 RMK A01 T00981107  RH  022%=      5-min Rain = 0
KDVS 112155Z 01016G22KT 10/M11 A302 RMK A01 T01011107  RH  022%=      5-min Rain = 0
KDVS 112200Z 35013G18KT 10/M11 A302 RMK A01 T01001107  RH  022%=      5-min Rain = 0
KDVS 112205Z 01012KT 10/M11 A3021 RMK A01 T00991107  RH  022%=      5-min Rain = 0
KDVS 112210Z 36010KT 10/M11 A3021 RMK A01 T00961105  RH  023%=      5-min Rain = 0
KDVS 112215Z 01011KT 10/M11 A3021 RMK A01 T01001106  RH  022%=      5-min Rain = 0
KDVS 112220Z 35011KT 10/M11 A3021 RMK A01 T01001106  RH  022%=      5-min Rain = 0
KDVS 112225Z 02011G16KT 10/M11 A3021 RMK A01 T00981106  RH  022%=      5-min Rain = 0
KDVS 112230Z 01009G15KT 10/M11 A3021 RMK A01 T00951107  RH  023%=      5-min Rain = 0
KDVS 112235Z 00012G17KT 09/M11 A3021 RMK A01 T00921106  RH  023%=      5-min Rain = 0
KDVS 112240Z 01011G16KT 10/M11 A3021 RMK A01 T00971106  RH  023%=      5-min Rain = 0
KDVS 112245Z 02009KT 10/M11 A3021 RMK A01 T00991107  RH  022%=      5-min Rain = 0
KDVS 112250Z 00008KT 10/M11 A3021 RMK A01 T00971108  RH  022%=      5-min Rain = 0
KDVS 112255Z 01009KT 09/M11 A3021 RMK A01 T00931109  RH  023%=      5-min Rain = 0
KDVS 112300Z 01011KT 09/M11 A3021 RMK A01 T00911109  RH  023%=      5-min Rain = 0
KDVS 112305Z 01010KT 09/M11 A3021 RMK A01 T00931108  RH  023%=      5-min Rain = 0
KDVS 112310Z 01011KT 10/M11 A3021 RMK A01 T00951107  RH  023%=      5-min Rain = 0
KDVS 112315Z 01010KT 09/M11 A3022 RMK A01 T00931108  RH  023%=      5-min Rain = 0
KDVS 112320Z 02010KT 09/M11 A3022 RMK A01 T00911109  RH  023%=      5-min Rain = 0
KDVS 112325Z 02008KT 09/M11 A3022 RMK A01 T00891110  RH  023%=      5-min Rain = 0
KDVS 112330Z 01009KT 09/M11 A3022 RMK A01 T00881109  RH  024%=      5-min Rain = 0
KDVS 112335Z 00008KT 09/M11 A3022 RMK A01 T00851106  RH  024%=      5-min Rain = 0
KDVS 112340Z 01009KT 08/M11 A3022 RMK A01 T00831107  RH  025%=      5-min Rain = 0
KDVS 112345Z 02006KT 08/M11 A3023 RMK A01 T00811108  RH  025%=      5-min Rain = 0
KDVS 112350Z 02007KT 08/M11 A3023 RMK A01 T00771111  RH  025%=      5-min Rain = 0
KDVS 112355Z 02007KT 07/M11 A3023 RMK A01 T00731112  RH  025%=      5-min Rain = 0
KDVS 120000Z 02007KT 07/M11 A3023 RMK A01 T00681113  RH  026%=      5-min Rain = 0
KDVS 120005Z 02007KT 06/M11 A3023 RMK A01 T00591114  RH  027%=      5-min Rain = 0
KDVS 120010Z 02007KT 05/M12 A3023 RMK A01 T00521115  RH  029%=      5-min Rain = 0
KDVS 120015Z 03006KT 05/M12 A3024 RMK A01 T00471117  RH  029%=      5-min Rain = 0
KDVS 120020Z 03007KT 04/M12 A3024 RMK A01 T00431117  RH  030%=      5-min Rain = 0
KDVS 120025Z 03007KT 04/M12 A3024 RMK A01 T00411118  RH  030%=      5-min Rain = 0
KDVS 120030Z 03007KT 04/M12 A3024 RMK A01 T00371119  RH  031%=      5-min Rain = 0
KDVS 120035Z 03006KT 03/M12 A3024 RMK A01 T00321120  RH  032%=      5-min Rain = 0
KDVS 120040Z 05005KT 03/M12 A3024 RMK A01 T00271120  RH  033%=      5-min Rain = 0
KDVS 120045Z 05005KT 03/M12 A3024 RMK A01 T00281119  RH  033%=      5-min Rain = 0
KDVS 120050Z 05004KT 04/M12 A3024 RMK A01 T00351117  RH  032%=      5-min Rain = 0
KDVS 120055Z 05003KT 04/M12 A3025 RMK A01 T00391117  RH  031%=      5-min Rain = 0
KDVS 120100Z 04003KT 04/M12 A3025 RMK A01 T00421117  RH  030%=      5-min Rain = 0
KDVS 120105Z 02003KT 04/M12 A3025 RMK A01 T00421117  RH  030%=      5-min Rain = 0
KDVS 120110Z 01003KT 04/M12 A3025 RMK A01 T00401117  RH  031%=      5-min Rain = 0
KDVS 120115Z 02004KT 04/M12 A3025 RMK A01 T00371117  RH  031%=      5-min Rain = 0
KDVS 120120Z 03005KT 04/M11 A3025 RMK A01 T00361113  RH  032%=      5-min Rain = 0
KDVS 120125Z 03004KT 03/M11 A3025 RMK A01 T00341110  RH  034%=      5-min Rain = 0
KDVS 120130Z 03004KT 03/M11 A3025 RMK A01 T00341110  RH  034%=      5-min Rain = 0
KDVS 120135Z 03004KT 03/M11 A3025 RMK A01 T00341111  RH  033%=      5-min Rain = 0
KDVS 120140Z 03004KT 03/M11 A3025 RMK A01 T00311114  RH  033%=      5-min Rain = 0
KDVS 120145Z 02004KT 03/M12 A3025 RMK A01 T00291116  RH  033%=      5-min Rain = 0
KDVS 120150Z 02004KT 03/M12 A3026 RMK A01 T00281118  RH  033%=      5-min Rain = 0
KDVS 120155Z 02005KT 03/M12 A3025 RMK A01 T00251118  RH  034%=      5-min Rain = 0
KDVS 120200Z 02005KT 02/M12 A3025 RMK A01 T00211116  RH  035%=      5-min Rain = 0
KDVS 120205Z 03005KT 02/M12 A3025 RMK A01 T00211116  RH  035%=      5-min Rain = 0
KDVS 120210Z 03005KT 02/M12 A3025 RMK A01 T00201117  RH  035%=      5-min Rain = 0
KDVS 120215Z 04005KT 02/M12 A3025 RMK A01 T00201116  RH  036%=      5-min Rain = 0
KDVS 120220Z 04005KT 02/M11 A3025 RMK A01 T00191113  RH  037%=      5-min Rain = 0
KDVS 120225Z 04005KT 02/M11 A3025 RMK A01 T00191108  RH  038%=      5-min Rain = 0
KDVS 120230Z 04005KT 02/M11 A3025 RMK A01 T00191106  RH  039%=      5-min Rain = 0
KDVS 120235Z 04004KT 02/M11 A3025 RMK A01 T00191105  RH  039%=      5-min Rain = 0
KDVS 120240Z 04004KT 02/M11 A3025 RMK A01 T00191110  RH  038%=      5-min Rain = 0
KDVS 120245Z 04003KT 02/M11 A3025 RMK A01 T00181111  RH  038%=      5-min Rain = 0
KDVS 120250Z 04003KT 02/M11 A3025 RMK A01 T00151112  RH  038%=      5-min Rain = 0
KDVS 120255Z 03003KT 02/M11 A3026 RMK A01 T00151111  RH  039%=      5-min Rain = 0
KDVS 120300Z 03003KT 01/M11 A3026 RMK A01 T00131113  RH  038%=      5-min Rain = 0
KDVS 120305Z 03003KT 01/M11 A3026 RMK A01 T00111114  RH  039%=      5-min Rain = 0
KDVS 120310Z 03003KT 01/M12 A3026 RMK A01 T00101115  RH  039%=      5-min Rain = 0
KDVS 120315Z 04003KT 01/M11 A3026 RMK A01 T00131114  RH  038%=      5-min Rain = 0
KDVS 120320Z 04003KT 01/M12 A3026 RMK A01 T00141115  RH  037%=      5-min Rain = 0
KDVS 120325Z 05003KT 01/M11 A3026 RMK A01 T00121114  RH  038%=      5-min Rain = 0
KDVS 120330Z 05003KT 01/M11 A3026 RMK A01 T00131112  RH  038%=      5-min Rain = 0
KDVS 120335Z 05003KT 01/M11 A3026 RMK A01 T00141113  RH  038%=      5-min Rain = 0
KDVS 120340Z 05003KT 01/M11 A3026 RMK A01 T00141113  RH  038%=      5-min Rain = 0
KDVS 120345Z 05003KT 01/M11 A3026 RMK A01 T00121114  RH  038%=      5-min Rain = 0
KDVS 120350Z 05003KT 01/M11 A3026 RMK A01 T00111114  RH  038%=      5-min Rain = 0
KDVS 120355Z 06002KT 01/M11 A3026 RMK A01 T00111114  RH  038%=      5-min Rain = 0
KDVS 120400Z 07002KT 01/M12 A3026 RMK A01 T00111116  RH  038%=      5-min Rain = 0
KDVS 120405Z 07001KT 01/M12 A3026 RMK A01 T00091117  RH  038%=      5-min Rain = 0
KDVS 120410Z 06001KT 00/M12 A3026 RMK A01 T00041118  RH  039%=      5-min Rain = 0
KDVS 120415Z 07001KT 01/M12 A3027 RMK A01 T00051116  RH  039%=      5-min Rain = 0
KDVS 120420Z 08002KT 01/M12 A3027 RMK A01 T00071115  RH  040%=      5-min Rain = 0
KDVS 120425Z 08001KT 01/M12 A3027 RMK A01 T00081115  RH  039%=      5-min Rain = 0
KDVS 120430Z 08002KT 01/M12 A3027 RMK A01 T00071116  RH  039%=      5-min Rain = 0
KDVS 120435Z 08002KT 00/M12 A3027 RMK A01 T00041116  RH  040%=      5-min Rain = 0
KDVS 120440Z 10002KT 00/M12 A3027 RMK A01 T00031115  RH  041%=      5-min Rain = 0
KDVS 120445Z 10001KT 00/M11 A3027 RMK A01 T00011114  RH  041%=      5-min Rain = 0
KDVS 120450Z 10002KT 00/12 A3027 RMK A01 T00-00-116  RH  041%=      5-min Rain = 0
KDVS 120455Z 12002KT M00/M11 A3027 RMK A01 T10021114  RH  042%=      5-min Rain = 0
KDVS 120500Z 13001KT M00/M11 A3027 RMK A01 T10021113  RH  043%=      5-min Rain = 0
KDVS 120505Z 13001KT M00/M11 A3027 RMK A01 T10011114  RH  042%=      5-min Rain = 0
KDVS 120510Z 14002KT M00/M12 A3027 RMK A01 T10021118  RH  041%=      5-min Rain = 0
KDVS 120515Z 14003KT M00/M12 A3027 RMK A01 T10031118  RH  041%=      5-min Rain = 0
KDVS 120520Z 14002KT M00/M12 A3027 RMK A01 T10021119  RH  041%=      5-min Rain = 0
KDVS 120525Z 13001KT M00/M12 A3027 RMK A01 T10041119  RH  041%=      5-min Rain = 0
KDVS 120530Z 14002KT M00/M12 A3027 RMK A01 T10041117  RH  042%=      5-min Rain = 0
KDVS 120535Z 14002KT M00/M12 A3027 RMK A01 T10011117  RH  041%=      5-min Rain = 0
KDVS 120540Z 14002KT M00/M12 A3027 RMK A01 T10011119  RH  041%=      5-min Rain = 0
KDVS 120545Z 13002KT 00/12 A3027 RMK A01 T00-00-117  RH  041%=      5-min Rain = 0
KDVS 120550Z 13002KT 00/M12 A3027 RMK A01 T00011117  RH  040%=      5-min Rain = 0
KDVS 120555Z 14002KT 00/M12 A3027 RMK A01 T00011117  RH  040%=      5-min Rain = 0

Page generated in 0.0091 seconds.